Los Lunas, New Mexico
Current Conditions -  °F | °C
As of 12:35 PM on Tuesday 21 Oct 2014 (Local Time) from KE80 Reporting Station
Overcast Overcast  
Wind Chill: 66°   Ceiling: 9000
Heat Index: 66°   Visibility: 10mi
Dew Point: 44°   Wind: 5mph
Humidity: 45%   Direction: 180°S
Pressure: 30.15"   Gusts: NA
Location:  34.81°N, 106.74°W
Report Text: KE80 211835Z AUTO 18004KT 10SM SCT043 OVC090 19/07 A3015 RMK AO2 T01870066
Loading
Personal Weather Stations






























Interactive Weather Map
Tropical Storm Tracking
New forecast layout! Learn more

10-Day Weather Forecast

Advertisements
Track Severe Weather on mobile